createdAt,value
2022-10-25T00:01:48.008Z,0.40
2022-10-25T00:04:18.761Z,2.10
2022-10-25T00:06:48.440Z,1.10
2022-10-25T00:09:16.616Z,0.40
2022-10-25T00:11:44.878Z,0.30
2022-10-25T00:14:19.285Z,0.20
2022-10-25T00:16:49.069Z,0.80
2022-10-25T00:19:16.848Z,0.20
2022-10-25T00:21:45.772Z,0.30
2022-10-25T00:24:16.307Z,1.50
2022-10-25T00:26:48.461Z,0.20
2022-10-25T00:29:17.654Z,0.20
2022-10-25T00:31:45.713Z,0.30
2022-10-25T00:34:14.249Z,2.30
2022-10-25T00:36:43.631Z,0.30
2022-10-25T00:39:11.745Z,0.30
2022-10-25T00:41:41.801Z,0.10
2022-10-25T00:44:40.881Z,0.30
2022-10-25T00:47:21.360Z,0.30
2022-10-25T00:50:23.163Z,0.20
2022-10-25T00:52:59.278Z,0.20
2022-10-25T00:55:28.988Z,0.30
2022-10-25T00:58:07.966Z,0.20
2022-10-25T01:00:36.954Z,0.20
2022-10-25T01:03:06.846Z,0.30
2022-10-25T01:05:36.875Z,0.70
2022-10-25T01:08:07.041Z,0.20
2022-10-25T01:10:36.140Z,0.20
2022-10-25T01:13:04.563Z,4.50
2022-10-25T01:15:58.396Z,0.20
2022-10-25T01:18:46.937Z,0.20
2022-10-25T01:21:46.242Z,0.20
2022-10-25T01:25:07.801Z,0.30
2022-10-25T01:28:06.613Z,0.20
2022-10-25T01:31:11.735Z,0.10
2022-10-25T01:34:01.354Z,0.60
2022-10-25T01:36:32.855Z,2.50
2022-10-25T01:39:18.526Z,0.30
2022-10-25T01:42:14.682Z,0.20
2022-10-25T01:45:20.028Z,0.20
2022-10-25T01:48:04.731Z,0.30
2022-10-25T01:50:39.756Z,0.20
2022-10-25T01:53:10.731Z,0.50
2022-10-25T01:56:00.255Z,2.90
2022-10-25T01:58:55.482Z,0.20
2022-10-25T02:02:04.501Z,2.80
2022-10-25T02:04:44.604Z,0.40
2022-10-25T02:07:25.109Z,0.30
2022-10-25T02:10:29.428Z,0.20
2022-10-25T02:13:37.318Z,1.90
2022-10-25T02:16:25.399Z,0.20
2022-10-25T02:19:01.393Z,0.20
2022-10-25T02:21:34.866Z,0.20
2022-10-25T02:24:12.375Z,0.20
2022-10-25T02:26:44.166Z,0.20
2022-10-25T02:29:16.802Z,0.20
2022-10-25T02:31:45.288Z,1.30
2022-10-25T02:34:13.092Z,1.80
2022-10-25T02:36:40.791Z,1.80
2022-10-25T02:39:08.904Z,0.50
2022-10-25T02:41:36.661Z,0.30
2022-10-25T02:44:04.513Z,0.60
2022-10-25T02:46:33.221Z,0.30
2022-10-25T02:49:01.411Z,2.50
2022-10-25T02:51:29.086Z,0.30
2022-10-25T02:53:57.144Z,0.20
2022-10-25T02:56:25.960Z,1.30
2022-10-25T02:58:59.032Z,0.20
2022-10-25T03:01:28.041Z,0.60
2022-10-25T03:03:55.886Z,0.20
2022-10-25T03:06:23.923Z,2.40
2022-10-25T03:08:53.922Z,1.10
2022-10-25T03:11:22.052Z,0.40
2022-10-25T03:13:50.245Z,0.40
2022-10-25T03:16:20.855Z,0.60
2022-10-25T03:18:48.562Z,0.40
2022-10-25T03:21:17.535Z,0.30
2022-10-25T03:23:45.777Z,0.40
2022-10-25T03:26:14.071Z,0.20
2022-10-25T03:28:42.094Z,1.10
2022-10-25T03:31:16.773Z,0.30
2022-10-25T03:33:44.629Z,0.20
2022-10-25T03:36:14.036Z,0.20
2022-10-25T03:38:46.188Z,0.20
2022-10-25T03:41:13.936Z,0.20
2022-10-25T03:43:42.100Z,0.20
2022-10-25T03:46:11.824Z,0.20
2022-10-25T03:48:40.001Z,1.00
2022-10-25T03:51:08.156Z,0.50
2022-10-25T03:53:37.183Z,3.60
2022-10-25T03:56:11.713Z,0.70
2022-10-25T03:58:41.578Z,3.50
2022-10-25T04:01:13.072Z,0.30
2022-10-25T04:03:41.085Z,2.20
2022-10-25T04:06:10.576Z,0.30
2022-10-25T04:08:39.979Z,0.30
2022-10-25T04:11:08.841Z,0.20
2022-10-25T04:13:37.791Z,0.20
2022-10-25T04:16:08.406Z,1.80
2022-10-25T04:18:36.362Z,0.30
2022-10-25T04:21:05.679Z,0.30
2022-10-25T04:23:34.849Z,0.20
2022-10-25T04:26:02.574Z,0.40
2022-10-25T04:28:30.847Z,0.80
2022-10-25T04:31:00.179Z,0.80
2022-10-25T04:33:29.456Z,0.20
2022-10-25T04:35:58.042Z,0.30
2022-10-25T04:38:27.721Z,0.30
2022-10-25T04:41:00.135Z,1.40
2022-10-25T04:43:29.487Z,0.20
2022-10-25T04:46:01.442Z,0.50
2022-10-25T04:48:30.148Z,1.10
2022-10-25T04:51:00.671Z,0.20
2022-10-25T04:53:29.186Z,0.30
2022-10-25T04:56:13.497Z,0.20
2022-10-25T04:58:46.251Z,1.20
2022-10-25T05:01:20.756Z,0.20
2022-10-25T05:03:49.804Z,0.20
2022-10-25T05:06:27.588Z,0.20
2022-10-25T05:08:57.861Z,0.20
2022-10-25T05:11:28.517Z,0.20
2022-10-25T05:13:58.351Z,1.50
2022-10-25T05:16:29.621Z,1.50
2022-10-25T05:18:57.406Z,0.40
2022-10-25T05:21:44.076Z,0.40
2022-10-25T05:24:32.658Z,0.70
2022-10-25T05:27:00.964Z,0.40
2022-10-25T05:29:28.879Z,1.60
2022-10-25T05:31:56.894Z,0.30
2022-10-25T05:34:26.873Z,0.80
2022-10-25T05:36:56.541Z,0.70
2022-10-25T05:39:25.588Z,2.00
2022-10-25T05:41:53.346Z,1.60
2022-10-25T05:44:22.331Z,0.30
2022-10-25T05:46:51.808Z,1.00
2022-10-25T05:49:20.320Z,1.90
2022-10-25T05:51:48.096Z,0.30
2022-10-25T05:54:16.259Z,0.30
2022-10-25T05:56:45.046Z,0.40
2022-10-25T05:59:14.967Z,0.50
2022-10-25T06:01:47.031Z,0.50
2022-10-25T06:04:18.625Z,0.20
2022-10-25T06:06:56.179Z,0.30
2022-10-25T06:09:26.472Z,1.00
2022-10-25T06:11:55.236Z,0.30
2022-10-25T06:14:22.897Z,0.20
2022-10-25T06:16:51.680Z,0.30
2022-10-25T06:19:19.519Z,0.40
2022-10-25T06:21:47.401Z,0.30
2022-10-25T06:24:17.685Z,2.70
2022-10-25T06:26:47.873Z,0.60
2022-10-25T06:29:19.851Z,0.50
2022-10-25T06:31:47.482Z,0.30
2022-10-25T06:34:16.821Z,1.10
2022-10-25T06:36:46.768Z,0.40
2022-10-25T06:39:17.716Z,0.40
2022-10-25T06:41:46.724Z,0.20
2022-10-25T06:44:17.605Z,0.60
2022-10-25T06:47:18.204Z,0.50
2022-10-25T06:49:37.722Z,1.00
2022-10-25T06:52:08.278Z,0.50
2022-10-25T06:54:36.084Z,0.70
2022-10-25T06:57:06.904Z,0.40
2022-10-25T06:59:34.624Z,0.30
2022-10-25T07:02:04.239Z,0.40
2022-10-25T07:04:35.897Z,0.50
2022-10-25T07:07:03.648Z,0.90
2022-10-25T07:09:32.394Z,0.30
2022-10-25T07:12:00.161Z,0.30
2022-10-25T07:14:27.787Z,5.80
2022-10-25T07:16:55.532Z,6.00
2022-10-25T07:19:24.641Z,0.50
2022-10-25T07:21:53.129Z,0.30
2022-10-25T07:24:22.546Z,0.50
2022-10-25T07:26:52.293Z,0.30
2022-10-25T07:29:24.925Z,0.30
2022-10-25T07:31:53.023Z,0.30
2022-10-25T07:34:23.594Z,0.30
2022-10-25T07:36:53.384Z,0.20
2022-10-25T07:39:21.100Z,0.30
2022-10-25T07:41:51.251Z,0.30
2022-10-25T07:44:25.035Z,0.80
2022-10-25T07:49:24.991Z,0.80
2022-10-25T07:51:53.743Z,1.50
2022-10-25T07:54:21.820Z,1.30
2022-10-25T07:56:50.323Z,1.50
2022-10-25T07:59:21.129Z,1.30
2022-10-25T08:01:51.893Z,2.20
2022-10-25T08:04:20.198Z,0.30
2022-10-25T08:06:48.217Z,2.10
2022-10-25T08:09:36.772Z,9.40
2022-10-25T08:12:05.589Z,1.10
2022-10-25T08:14:35.162Z,0.60
2022-10-25T08:17:06.264Z,0.60
2022-10-25T08:19:34.872Z,0.40
2022-10-25T08:22:03.372Z,0.90
2022-10-25T08:24:34.035Z,2.50
2022-10-25T08:27:04.582Z,0.20
2022-10-25T08:29:34.035Z,0.80
2022-10-25T08:32:02.634Z,1.00
2022-10-25T08:34:33.075Z,0.60
2022-10-25T08:37:01.340Z,0.50
2022-10-25T08:39:29.052Z,0.30
2022-10-25T08:42:02.313Z,0.20
2022-10-25T08:45:01.838Z,1.00
2022-10-25T08:47:39.487Z,0.40
2022-10-25T08:50:40.710Z,2.20
2022-10-25T08:53:42.611Z,1.30
2022-10-25T08:56:17.489Z,0.40
2022-10-25T08:58:54.655Z,0.20
2022-10-25T09:01:37.277Z,0.40
2022-10-25T09:07:19.290Z,0.40
2022-10-25T09:10:20.970Z,0.30
2022-10-25T09:13:08.458Z,0.60
2022-10-25T09:16:05.082Z,0.50
2022-10-25T09:18:49.488Z,0.70
2022-10-25T09:21:50.417Z,2.00
2022-10-25T09:24:45.769Z,0.40
2022-10-25T09:27:34.589Z,0.50
2022-10-25T09:30:13.775Z,0.40
2022-10-25T09:32:53.991Z,0.20
2022-10-25T09:35:29.814Z,1.20
2022-10-25T09:38:13.972Z,0.30
2022-10-25T09:41:03.469Z,0.40
2022-10-25T09:43:40.706Z,0.40
2022-10-25T09:46:51.950Z,0.60
2022-10-25T09:49:57.930Z,0.30
2022-10-25T09:52:35.150Z,0.30
2022-10-25T09:55:14.092Z,0.40
2022-10-25T09:57:43.183Z,0.30
2022-10-25T10:00:16.496Z,0.50
2022-10-25T10:02:44.741Z,1.20
2022-10-25T10:05:24.293Z,1.50
2022-10-25T10:07:52.685Z,0.80
2022-10-25T10:10:32.601Z,1.60
2022-10-25T10:13:25.256Z,0.40
2022-10-25T10:16:03.154Z,1.20
2022-10-25T10:18:34.263Z,0.40
2022-10-25T10:21:10.180Z,0.60
2022-10-25T10:23:48.202Z,0.30
2022-10-25T10:26:22.361Z,0.40
2022-10-25T10:29:07.890Z,0.30
2022-10-25T10:31:46.419Z,0.60
2022-10-25T10:34:32.615Z,0.20
2022-10-25T10:37:03.578Z,2.40
2022-10-25T10:39:34.265Z,2.80
2022-10-25T10:42:20.917Z,1.10
2022-10-25T10:45:13.593Z,0.40
2022-10-25T10:47:59.020Z,0.30
2022-10-25T10:50:32.928Z,1.30
2022-10-25T10:53:08.420Z,0.20
2022-10-25T10:56:01.800Z,0.60
2022-10-25T10:58:40.461Z,0.10
2022-10-25T11:01:18.969Z,0.30
2022-10-25T11:04:00.193Z,0.80
2022-10-25T11:06:32.981Z,0.30
2022-10-25T11:09:23.500Z,2.10
2022-10-25T11:12:17.215Z,1.50
2022-10-25T11:14:45.409Z,0.40
2022-10-25T11:17:38.626Z,1.20
2022-10-25T11:20:31.154Z,0.70
2022-10-25T11:23:55.733Z,0.80
2022-10-25T11:26:48.404Z,0.80
2022-10-25T11:30:04.425Z,0.60
2022-10-25T11:33:01.770Z,5.00
2022-10-25T11:36:09.857Z,1.00
2022-10-25T11:38:50.089Z,1.00
2022-10-25T11:41:50.344Z,0.40
2022-10-25T11:44:31.012Z,0.40
2022-10-25T11:47:13.471Z,1.90
2022-10-25T11:49:57.281Z,0.50
2022-10-25T11:53:13.361Z,1.00
2022-10-25T11:56:10.077Z,0.60
2022-10-25T11:58:56.870Z,0.70
2022-10-25T12:02:28.513Z,0.50
2022-10-25T12:05:36.515Z,0.60
2022-10-25T12:08:43.459Z,1.30
2022-10-25T12:11:27.053Z,0.30
2022-10-25T12:14:07.140Z,0.30
2022-10-25T12:16:37.897Z,0.60
2022-10-25T12:19:23.083Z,0.80
2022-10-25T12:22:02.084Z,0.40
2022-10-25T12:24:43.175Z,0.50
2022-10-25T12:27:14.509Z,0.40
2022-10-25T12:29:54.838Z,2.50
2022-10-25T12:32:44.185Z,0.40
2022-10-25T12:35:28.870Z,0.40
2022-10-25T12:38:07.436Z,0.70
2022-10-25T12:40:45.119Z,3.30
2022-10-25T12:43:47.277Z,0.40
2022-10-25T12:47:03.959Z,0.30
2022-10-25T12:50:02.845Z,0.50
2022-10-25T12:52:59.238Z,0.30
2022-10-25T12:56:04.525Z,0.70
2022-10-25T12:59:04.218Z,0.20
2022-10-25T13:01:50.807Z,0.90
2022-10-25T13:05:02.634Z,0.30
2022-10-25T13:07:34.835Z,2.30
2022-10-25T13:13:39.125Z,0.40
2022-10-25T13:16:15.573Z,0.40
2022-10-25T13:18:47.681Z,0.60
2022-10-25T13:21:53.397Z,0.30
2022-10-25T13:25:05.313Z,0.50
2022-10-25T13:27:36.716Z,3.30
2022-10-25T13:30:32.225Z,0.50
2022-10-25T13:33:20.631Z,0.40
2022-10-25T13:35:51.549Z,0.30
2022-10-25T13:38:38.025Z,0.50
2022-10-25T13:41:16.016Z,0.30
2022-10-25T13:44:02.573Z,0.30
2022-10-25T13:46:39.930Z,1.10
2022-10-25T13:49:35.580Z,1.70
2022-10-25T13:52:24.883Z,0.50
2022-10-25T13:54:57.254Z,0.50
2022-10-25T13:57:59.589Z,0.70
2022-10-25T14:00:47.975Z,0.90
2022-10-25T14:03:45.631Z,0.30
2022-10-25T14:06:25.806Z,0.30
2022-10-25T14:09:21.285Z,0.50
2022-10-25T14:11:57.334Z,0.20
2022-10-25T14:15:13.658Z,0.50
2022-10-25T14:17:44.811Z,1.20
2022-10-25T14:20:32.463Z,0.80
2022-10-25T14:23:14.537Z,0.50
2022-10-25T14:25:58.999Z,2.50
2022-10-25T14:28:36.051Z,1.00
2022-10-25T14:31:08.246Z,0.60
2022-10-25T14:33:56.774Z,0.50
2022-10-25T14:36:36.010Z,2.30
2022-10-25T14:39:19.010Z,2.70
2022-10-25T14:42:17.175Z,1.30
2022-10-25T14:45:13.627Z,2.10
2022-10-25T14:47:43.480Z,0.50
2022-10-25T14:50:15.492Z,1.40
2022-10-25T14:52:49.658Z,0.70
2022-10-25T14:55:33.929Z,2.20
2022-10-25T15:00:33.890Z,6.10
2022-10-25T15:03:06.891Z,0.60
2022-10-25T15:05:44.101Z,1.30
2022-10-25T15:08:22.012Z,4.20
2022-10-25T15:10:58.460Z,1.50
2022-10-25T15:13:42.000Z,1.10
2022-10-25T15:16:50.344Z,2.60
2022-10-25T15:19:21.205Z,1.50
2022-10-25T15:22:02.372Z,1.10
2022-10-25T15:24:32.277Z,2.50
2022-10-25T15:27:05.880Z,1.70
2022-10-25T15:29:43.512Z,3.20
2022-10-25T15:32:27.902Z,1.20
2022-10-25T15:35:00.933Z,2.60
2022-10-25T15:37:31.493Z,5.70
2022-10-25T15:40:00.072Z,4.40
2022-10-25T15:42:29.504Z,4.90
2022-10-25T15:44:59.086Z,3.80
2022-10-25T15:47:37.482Z,3.60
2022-10-25T15:50:22.751Z,1.30
2022-10-25T15:52:55.786Z,4.30
2022-10-25T15:55:28.320Z,4.40
2022-10-25T15:57:58.262Z,2.50
2022-10-25T16:00:30.862Z,3.30
2022-10-25T16:03:00.552Z,2.80
2022-10-25T16:05:38.236Z,4.90
2022-10-25T16:08:09.295Z,4.80
2022-10-25T16:10:38.247Z,8.50
2022-10-25T16:13:19.274Z,16.10
2022-10-25T16:15:48.939Z,15.50
2022-10-25T16:18:17.805Z,9.20
2022-10-25T16:20:47.891Z,6.30
2022-10-25T16:23:17.397Z,5.80
2022-10-25T16:25:47.935Z,23.70
2022-10-25T16:28:17.123Z,13.20
2022-10-25T16:30:48.281Z,10.10
2022-10-25T16:33:19.182Z,10.50
2022-10-25T16:35:48.201Z,5.00
2022-10-25T16:38:17.719Z,4.70
2022-10-25T16:40:49.164Z,7.20
2022-10-25T16:43:19.565Z,3.20
2022-10-25T16:45:51.797Z,3.90
2022-10-25T16:48:19.638Z,7.70
2022-10-25T16:50:48.519Z,5.10
2022-10-25T16:53:19.050Z,7.30
2022-10-25T16:55:48.315Z,9.70
2022-10-25T16:58:17.633Z,5.00
2022-10-25T17:00:50.063Z,23.10
2022-10-25T17:03:21.998Z,16.10
2022-10-25T17:05:52.497Z,21.40
2022-10-25T17:08:21.559Z,20.30
2022-10-25T17:10:49.651Z,24.90
2022-10-25T17:13:21.208Z,18.10
2022-10-25T17:15:49.369Z,14.30
2022-10-25T17:18:21.537Z,17.40
2022-10-25T17:20:50.777Z,15.40
2022-10-25T17:23:20.230Z,19.40
2022-10-25T17:26:03.225Z,24.70
2022-10-25T17:28:34.386Z,24.10
2022-10-25T17:31:08.201Z,19.90
2022-10-25T17:33:36.418Z,21.80
2022-10-25T17:36:11.710Z,14.90
2022-10-25T17:38:41.640Z,15.40
2022-10-25T17:41:10.624Z,19.30
2022-10-25T17:43:45.103Z,17.90
2022-10-25T17:46:20.918Z,15.80
2022-10-25T17:48:57.266Z,25.30
2022-10-25T17:51:26.082Z,26.60
2022-10-25T17:53:57.427Z,20.50
2022-10-25T17:56:33.434Z,12.80
2022-10-25T17:59:04.258Z,9.90
2022-10-25T18:01:42.685Z,16.90
2022-10-25T18:04:11.511Z,21.70
2022-10-25T18:06:40.893Z,14.30
2022-10-25T18:09:09.876Z,14.60
2022-10-25T18:11:40.672Z,13.00
2022-10-25T18:14:10.151Z,14.10
2022-10-25T18:16:43.133Z,15.10
2022-10-25T18:19:15.199Z,16.00
2022-10-25T18:21:45.335Z,13.80
2022-10-25T18:24:13.625Z,38.20
2022-10-25T18:26:41.528Z,51.60
2022-10-25T18:29:14.430Z,62.80
2022-10-25T18:31:42.433Z,46.70
2022-10-25T18:34:10.465Z,31.10
2022-10-25T18:36:38.553Z,32.70
2022-10-25T18:39:11.061Z,24.00
2022-10-25T18:41:43.483Z,22.60
2022-10-25T18:44:15.214Z,32.20
2022-10-25T18:46:46.834Z,33.60
2022-10-25T18:49:17.950Z,32.30
2022-10-25T18:51:47.431Z,29.30
2022-10-25T18:54:15.767Z,23.90
2022-10-25T18:56:45.505Z,26.70
2022-10-25T18:59:16.615Z,26.30
2022-10-25T19:01:45.615Z,26.30
2022-10-25T19:04:13.650Z,28.30
2022-10-25T19:06:41.763Z,22.40
2022-10-25T19:09:10.719Z,16.10
2022-10-25T19:11:38.528Z,17.50
2022-10-25T19:14:09.824Z,11.90
2022-10-25T19:16:40.817Z,13.30
2022-10-25T19:19:14.179Z,8.50
2022-10-25T19:21:43.808Z,9.80
2022-10-25T19:24:15.906Z,9.70
2022-10-25T19:26:47.801Z,11.70
2022-10-25T19:29:19.325Z,11.00
2022-10-25T19:31:49.195Z,15.00
2022-10-25T19:34:17.171Z,8.80
2022-10-25T19:36:48.075Z,10.20
2022-10-25T19:39:16.257Z,10.40
2022-10-25T19:41:45.257Z,24.30
2022-10-25T19:44:14.139Z,14.40
2022-10-25T19:46:42.623Z,23.40
2022-10-25T19:49:11.856Z,20.50
2022-10-25T19:51:41.477Z,27.10
2022-10-25T19:54:10.124Z,19.60
2022-10-25T19:56:39.202Z,25.10
2022-10-25T19:59:11.763Z,27.70
2022-10-25T20:01:39.832Z,21.80
2022-10-25T20:04:11.385Z,12.70
2022-10-25T20:06:41.403Z,9.40
2022-10-25T20:09:12.012Z,6.00
2022-10-25T20:11:41.480Z,12.20
2022-10-25T20:14:09.388Z,14.50
2022-10-25T20:16:42.241Z,48.80
2022-10-25T20:19:14.990Z,19.40
2022-10-25T20:21:42.698Z,85.70
2022-10-25T20:24:12.024Z,49.20
2022-10-25T20:26:43.455Z,65.20
2022-10-25T20:29:21.506Z,23.10
2022-10-25T20:31:54.898Z,14.20
2022-10-25T20:34:22.661Z,16.90
2022-10-25T20:36:51.443Z,19.70
2022-10-25T20:39:21.664Z,14.20
2022-10-25T20:41:53.599Z,18.50
2022-10-25T20:44:22.866Z,17.50
2022-10-25T20:46:51.373Z,21.90
2022-10-25T20:49:19.488Z,16.00
2022-10-25T20:51:49.372Z,16.80
2022-10-25T20:54:20.173Z,100.10
2022-10-25T20:56:49.815Z,120.50
2022-10-25T20:59:17.460Z,73.80
2022-10-25T21:01:45.853Z,32.60
2022-10-25T21:04:25.746Z,20.30
2022-10-25T21:07:04.753Z,26.40
2022-10-25T21:09:35.320Z,17.70
2022-10-25T21:12:06.901Z,13.50
2022-10-25T21:14:35.352Z,12.70
2022-10-25T21:17:05.647Z,12.10
2022-10-25T21:19:34.186Z,12.80
2022-10-25T21:22:08.893Z,12.80
2022-10-25T21:24:37.536Z,12.90
2022-10-25T21:27:06.227Z,13.90
2022-10-25T21:29:34.455Z,15.90
2022-10-25T21:32:03.583Z,16.70
2022-10-25T21:34:32.089Z,16.90
2022-10-25T21:37:02.013Z,31.00
2022-10-25T21:39:31.940Z,32.20
2022-10-25T21:42:00.905Z,26.10
2022-10-25T21:44:30.218Z,34.20
2022-10-25T21:47:00.196Z,23.50
2022-10-25T21:49:27.931Z,22.70
2022-10-25T21:51:56.486Z,17.80
2022-10-25T21:54:25.801Z,14.80
2022-10-25T21:56:53.835Z,14.50
2022-10-25T21:59:24.129Z,14.50
2022-10-25T22:01:53.682Z,15.90
2022-10-25T22:04:23.972Z,15.10
2022-10-25T22:06:51.652Z,15.10
2022-10-25T22:09:20.235Z,15.40
2022-10-25T22:11:53.162Z,14.40
2022-10-25T22:14:23.492Z,17.20
2022-10-25T22:16:53.810Z,10.70
2022-10-25T22:19:26.384Z,12.40
2022-10-25T22:21:55.285Z,13.00
2022-10-25T22:24:24.027Z,9.70
2022-10-25T22:26:53.015Z,9.20
2022-10-25T22:29:23.590Z,7.00
2022-10-25T22:31:52.798Z,9.70
2022-10-25T22:34:23.695Z,10.20
2022-10-25T22:36:52.690Z,8.90
2022-10-25T22:39:21.164Z,7.30
2022-10-25T22:41:53.252Z,9.40
2022-10-25T22:46:54.703Z,10.90
2022-10-25T22:49:25.741Z,8.40
2022-10-25T22:51:53.401Z,6.90
2022-10-25T22:54:21.476Z,4.90
2022-10-25T22:56:49.317Z,4.50
2022-10-25T22:59:19.488Z,4.10
2022-10-25T23:01:47.317Z,3.60
2022-10-25T23:04:15.700Z,4.50
2022-10-25T23:06:44.663Z,3.90
2022-10-25T23:09:16.890Z,6.40
2022-10-25T23:11:46.067Z,6.00
2022-10-25T23:14:16.637Z,4.00
2022-10-25T23:16:46.845Z,5.70
2022-10-25T23:19:15.020Z,7.20
2022-10-25T23:21:42.973Z,3.70
2022-10-25T23:24:13.413Z,6.60
2022-10-25T23:26:43.331Z,2.20
2022-10-25T23:29:15.285Z,5.30
2022-10-25T23:31:44.815Z,3.80
2022-10-25T23:34:13.378Z,4.20
2022-10-25T23:36:45.051Z,5.20
2022-10-25T23:39:13.983Z,5.20
2022-10-25T23:41:42.216Z,4.30
2022-10-25T23:44:10.683Z,4.10
2022-10-25T23:46:41.125Z,4.20
2022-10-25T23:49:09.480Z,3.50
2022-10-25T23:51:37.141Z,3.90
2022-10-25T23:54:05.356Z,6.10
2022-10-25T23:56:34.085Z,3.90
2022-10-25T23:59:04.855Z,6.40
